Arlington, Nebraska
Current Conditions -  °F | °C
As of 5:35 PM on Sunday 23 Nov 2014 (Local Time) from KFET Reporting Station
Clear Clear  
Wind Chill: 36°   Ceiling: Unl
Heat Index: 44°   Visibility: 10mi
Dew Point: 31°   Wind: 18mph
Humidity: 61%   Direction: 330°NNW
Pressure: 29.56"   Gusts: 28mph
Location:  41.45°N, 96.35°W
Report Text: KFET 232335Z AUTO 33016G24KT 10SM CLR 07/00 A2956 RMK AO2 T00651005
Loading
Personal Weather Stations






























Interactive Weather Map New forecast layout! Learn more

10-Day Weather Forecast

Advertisements
Track Severe Weather on mobile